sensor_id;sensor_type;location;lat;lon;timestamp;pressure;altitude;pressure_sealevel;temperature;humidity
19736;BME280;32064;49.310;8.646;2024-03-02T00:01:10;99356.00;;;11.79;64.36
19736;BME280;32064;49.310;8.646;2024-03-02T00:03:36;99355.47;;;11.76;65.96
19736;BME280;32064;49.310;8.646;2024-03-02T00:06:02;99347.56;;;11.76;65.47
19736;BME280;32064;49.310;8.646;2024-03-02T00:08:28;99352.13;;;11.74;66.23
19736;BME280;32064;49.310;8.646;2024-03-02T00:10:58;99349.38;;;11.75;65.59
19736;BME280;32064;49.310;8.646;2024-03-02T00:13:24;99350.91;;;11.78;64.56
19736;BME280;32064;49.310;8.646;2024-03-02T00:15:56;99345.47;;;11.79;66.35
19736;BME280;32064;49.310;8.646;2024-03-02T00:20:57;99343.38;;;11.83;64.74
19736;BME280;32064;49.310;8.646;2024-03-02T00:23:24;99334.22;;;11.77;65.93
19736;BME280;32064;49.310;8.646;2024-03-02T00:25:51;99328.44;;;11.83;66.48
19736;BME280;32064;49.310;8.646;2024-03-02T00:28:22;99338.56;;;11.88;65.97
19736;BME280;32064;49.310;8.646;2024-03-02T00:30:58;99336.06;;;11.86;64.88
19736;BME280;32064;49.310;8.646;2024-03-02T00:33:33;99340.63;;;11.84;65.65
19736;BME280;32064;49.310;8.646;2024-03-02T00:35:59;99337.44;;;11.81;65.88
19736;BME280;32064;49.310;8.646;2024-03-02T00:38:25;99339.25;;;11.71;65.34
19736;BME280;32064;49.310;8.646;2024-03-02T00:40:51;99333.16;;;11.70;66.80
19736;BME280;32064;49.310;8.646;2024-03-02T00:45:49;99339.25;;;11.71;65.34
19736;BME280;32064;49.310;8.646;2024-03-02T00:48:15;99336.63;;;11.71;64.96
19736;BME280;32064;49.310;8.646;2024-03-02T00:50:41;99338.84;;;11.75;65.29
19736;BME280;32064;49.310;8.646;2024-03-02T00:53:10;99341.47;;;11.65;67.33
19736;BME280;32064;49.310;8.646;2024-03-02T00:55:36;99348.13;;;11.69;66.81
19736;BME280;32064;49.310;8.646;2024-03-02T00:58:02;99342.59;;;11.63;66.84
19736;BME280;32064;49.310;8.646;2024-03-02T01:00:28;99345.22;;;11.63;66.81
19736;BME280;32064;49.310;8.646;2024-03-02T01:02:53;99343.84;;;11.59;66.14
19736;BME280;32064;49.310;8.646;2024-03-02T01:05:19;99343.16;;;11.47;67.08
19736;BME280;32064;49.310;8.646;2024-03-02T01:07:45;99345.81;;;11.47;66.81
19736;BME280;32064;49.310;8.646;2024-03-02T01:10:11;99340.38;;;11.49;65.73
19736;BME280;32064;49.310;8.646;2024-03-02T01:12:36;99345.38;;;11.52;67.21
19736;BME280;32064;49.310;8.646;2024-03-02T01:15:02;99354.25;;;11.51;66.73
19736;BME280;32064;49.310;8.646;2024-03-02T01:17:31;99356.88;;;11.51;67.55
19736;BME280;32064;49.310;8.646;2024-03-02T01:19:56;99357.16;;;11.48;65.86
19736;BME280;32064;49.310;8.646;2024-03-02T01:22:22;99357.16;;;11.48;68.01
19736;BME280;32064;49.310;8.646;2024-03-02T01:24:50;99356.34;;;11.47;66.97
19736;BME280;32064;49.310;8.646;2024-03-02T01:27:15;99365.88;;;11.48;67.00
19736;BME280;32064;49.310;8.646;2024-03-02T01:29:41;99362.16;;;11.51;66.55
19736;BME280;32064;49.310;8.646;2024-03-02T01:32:07;99357.72;;;11.51;66.37
19736;BME280;32064;49.310;8.646;2024-03-02T01:34:32;99358.53;;;11.52;66.16
19736;BME280;32064;49.310;8.646;2024-03-02T01:36:57;99356.59;;;11.54;66.58
19736;BME280;32064;49.310;8.646;2024-03-02T01:39:23;99347.72;;;11.55;67.44
19736;BME280;32064;49.310;8.646;2024-03-02T01:41:48;99344.97;;;11.56;66.63
19736;BME280;32064;49.310;8.646;2024-03-02T01:44:13;99349.41;;;11.56;65.64
19736;BME280;32064;49.310;8.646;2024-03-02T01:46:39;99350.78;;;11.60;65.30
19736;BME280;32064;49.310;8.646;2024-03-02T01:49:05;99343.97;;;11.57;67.29
19736;BME280;32064;49.310;8.646;2024-03-02T01:51:31;99341.34;;;11.57;66.41
19736;BME280;32064;49.310;8.646;2024-03-02T01:53:56;99336.78;;;11.59;65.30
19736;BME280;32064;49.310;8.646;2024-03-02T01:56:22;99328.31;;;11.56;65.75
19736;BME280;32064;49.310;8.646;2024-03-02T01:58:47;99330.25;;;11.54;66.43
19736;BME280;32064;49.310;8.646;2024-03-02T02:01:13;99327.78;;;11.52;66.89
19736;BME280;32064;49.310;8.646;2024-03-02T02:03:38;99316.84;;;11.47;67.15
19736;BME280;32064;49.310;8.646;2024-03-02T02:06:04;99319.16;;;11.40;65.89
19736;BME280;32064;49.310;8.646;2024-03-02T02:08:29;99325.41;;;11.39;65.33
19736;BME280;32064;49.310;8.646;2024-03-02T02:10:55;99318.50;;;11.38;66.35
19736;BME280;32064;49.310;8.646;2024-03-02T02:13:20;99324.59;;;11.39;65.66
19736;BME280;32064;49.310;8.646;2024-03-02T02:15:45;99307.56;;;11.33;66.09
19736;BME280;32064;49.310;8.646;2024-03-02T02:18:11;99304.91;;;11.33;67.55
19736;BME280;32064;49.310;8.646;2024-03-02T02:20:36;99307.69;;;11.32;65.62
19736;BME280;32064;49.310;8.646;2024-03-02T02:23:03;99307.97;;;11.29;66.77
19736;BME280;32064;49.310;8.646;2024-03-02T02:25:29;99315.03;;;11.28;67.48
19736;BME280;32064;49.310;8.646;2024-03-02T02:27:55;99312.41;;;11.18;nan
19736;BME280;32064;49.310;8.646;2024-03-02T02:30:29;99313.09;;;11.20;66.00
19736;BME280;32064;49.310;8.646;2024-03-02T02:32:55;99313.25;;;11.19;67.42
19736;BME280;32064;49.310;8.646;2024-03-02T02:35:21;99309.50;;;11.21;66.33
19736;BME280;32064;49.310;8.646;2024-03-02T02:37:47;99305.88;;;11.22;66.91
19736;BME280;32064;49.310;8.646;2024-03-02T02:40:14;99311.44;;;11.19;66.70
19736;BME280;32064;49.310;8.646;2024-03-02T02:42:39;99304.91;;;11.23;65.64
19736;BME280;32064;49.310;8.646;2024-03-02T02:45:06;99305.19;;;11.20;66.96
19736;BME280;32064;49.310;8.646;2024-03-02T02:47:31;99290.94;;;11.13;66.94
19736;BME280;32064;49.310;8.646;2024-03-02T02:50:00;99287.47;;;11.13;67.69
19736;BME280;32064;49.310;8.646;2024-03-02T02:52:31;99291.34;;;11.09;66.51
19736;BME280;32064;49.310;8.646;2024-03-02T02:54:58;99285.81;;;11.02;66.84
19736;BME280;32064;49.310;8.646;2024-03-02T02:57:23;99289.94;;;10.95;66.55
19736;BME280;32064;49.310;8.646;2024-03-02T02:59:48;99287.47;;;10.93;67.65
19736;BME280;32064;49.310;8.646;2024-03-02T03:02:14;99275.81;;;10.86;67.19
19736;BME280;32064;49.310;8.646;2024-03-02T03:04:40;99288.03;;;10.87;66.78
19736;BME280;32064;49.310;8.646;2024-03-02T03:07:05;99285.78;;;10.92;68.08
19736;BME280;32064;49.310;8.646;2024-03-02T03:09:31;99282.06;;;10.85;67.84
19736;BME280;32064;49.310;8.646;2024-03-02T03:11:56;99283.16;;;10.92;67.53
19736;BME280;32064;49.310;8.646;2024-03-02T03:14:21;99285.25;;;10.98;68.17
19736;BME280;32064;49.310;8.646;2024-03-02T03:16:47;99282.47;;;11.00;68.34
19736;BME280;32064;49.310;8.646;2024-03-02T03:19:13;99284.00;;;11.02;66.61
19736;BME280;32064;49.310;8.646;2024-03-02T03:21:39;99278.03;;;11.00;67.70
19736;BME280;32064;49.310;8.646;2024-03-02T03:24:04;99283.56;;;10.97;66.87
19736;BME280;32064;49.310;8.646;2024-03-02T03:26:30;99277.91;;;10.92;68.78
19736;BME280;32064;49.310;8.646;2024-03-02T03:28:55;99277.63;;;10.95;68.18
19736;BME280;32064;49.310;8.646;2024-03-02T03:31:20;99274.31;;;10.93;67.99
19736;BME280;32064;49.310;8.646;2024-03-02T03:33:46;99277.06;;;10.92;67.76
19736;BME280;32064;49.310;8.646;2024-03-02T03:36:11;99275.00;;;10.86;68.79
19736;BME280;32064;49.310;8.646;2024-03-02T03:38:36;99274.16;;;10.85;67.50
19736;BME280;32064;49.310;8.646;2024-03-02T03:41:02;99275.97;;;10.85;67.28
19736;BME280;32064;49.310;8.646;2024-03-02T03:43:27;99276.09;;;10.73;69.45
19736;BME280;32064;49.310;8.646;2024-03-02T03:45:53;99271.81;;;10.82;68.19
19736;BME280;32064;49.310;8.646;2024-03-02T03:48:18;99269.72;;;10.76;68.00
19736;BME280;32064;49.310;8.646;2024-03-02T03:50:44;99270.41;;;10.78;68.96
19736;BME280;32064;49.310;8.646;2024-03-02T03:53:09;99271.53;;;10.85;69.05
19736;BME280;32064;49.310;8.646;2024-03-02T03:55:34;99272.50;;;10.74;69.24
19736;BME280;32064;49.310;8.646;2024-03-02T03:58:00;99272.63;;;10.73;69.42
19736;BME280;32064;49.310;8.646;2024-03-02T04:00:25;99277.63;;;10.76;68.16
19736;BME280;32064;49.310;8.646;2024-03-02T04:02:51;99269.72;;;10.66;69.36
19736;BME280;32064;49.310;8.646;2024-03-02T04:05:16;99279.81;;;10.71;67.83
19736;BME280;32064;49.310;8.646;2024-03-02T04:07:42;99285.53;;;10.76;69.75
19736;BME280;32064;49.310;8.646;2024-03-02T04:10:09;99281.78;;;10.78;67.55
19736;BME280;32064;49.310;8.646;2024-03-02T04:12:38;99274.84;;;10.77;67.90
19736;BME280;32064;49.310;8.646;2024-03-02T04:15:05;99265.41;;;10.75;68.59
19736;BME280;32064;49.310;8.646;2024-03-02T04:17:32;99274.41;;;10.72;67.90
19736;BME280;32064;49.310;8.646;2024-03-02T04:19:58;99285.25;;;10.79;68.27
19736;BME280;32064;49.310;8.646;2024-03-02T04:22:24;99272.63;;;10.83;69.35
19736;BME280;32064;49.310;8.646;2024-03-02T04:24:49;99274.00;;;10.87;68.89
19736;BME280;32064;49.310;8.646;2024-03-02T04:27:14;99277.63;;;10.86;67.44
19736;BME280;32064;49.310;8.646;2024-03-02T04:29:40;99274.16;;;10.85;68.75
19736;BME280;32064;49.310;8.646;2024-03-02T04:32:05;99279.69;;;10.82;69.22
19736;BME280;32064;49.310;8.646;2024-03-02T04:34:31;99285.50;;;10.86;67.68
19736;BME280;32064;49.310;8.646;2024-03-02T04:36:56;99285.78;;;10.83;69.66
19736;BME280;32064;49.310;8.646;2024-03-02T04:39:21;99284.53;;;10.87;68.21
19736;BME280;32064;49.310;8.646;2024-03-02T04:41:47;99278.03;;;10.81;68.37
19736;BME280;32064;49.310;8.646;2024-03-02T04:44:13;99279.56;;;10.74;69.41
19736;BME280;32064;49.310;8.646;2024-03-02T04:46:38;99284.97;;;10.82;68.24
19736;BME280;32064;49.310;8.646;2024-03-02T04:49:03;99277.50;;;10.87;68.49
19736;BME280;32064;49.310;8.646;2024-03-02T04:51:29;99279.00;;;10.90;68.69
19736;BME280;32064;49.310;8.646;2024-03-02T04:53:54;99281.78;;;10.88;67.12
19736;BME280;32064;49.310;8.646;2024-03-02T04:56:20;99288.03;;;10.87;68.80
19736;BME280;32064;49.310;8.646;2024-03-02T04:58:47;99287.31;;;10.85;68.98
19736;BME280;32064;49.310;8.646;2024-03-02T05:01:13;99291.88;;;10.83;68.57
19736;BME280;32064;49.310;8.646;2024-03-02T05:03:38;99293.41;;;10.86;67.75
19736;BME280;32064;49.310;8.646;2024-03-02T05:06:04;99296.03;;;10.86;67.96
19736;BME280;32064;49.310;8.646;2024-03-02T05:08:29;99300.19;;;10.88;66.97
19736;BME280;32064;49.310;8.646;2024-03-02T05:10:54;99307.94;;;10.90;67.76
19736;BME280;32064;49.310;8.646;2024-03-02T05:13:20;99312.38;;;10.89;68.53
19736;BME280;32064;49.310;8.646;2024-03-02T05:15:46;99314.34;;;10.87;67.03
19736;BME280;32064;49.310;8.646;2024-03-02T05:18:11;99311.81;;;10.86;68.74
19736;BME280;32064;49.310;8.646;2024-03-02T05:20:37;99315.56;;;10.83;68.05
19736;BME280;32064;49.310;8.646;2024-03-02T05:23:02;99318.34;;;10.82;68.09
19736;BME280;32064;49.310;8.646;2024-03-02T05:25:28;99317.25;;;10.84;68.57
19736;BME280;32064;49.310;8.646;2024-03-02T05:27:53;99320.16;;;10.91;67.71
19736;BME280;32064;49.310;8.646;2024-03-02T05:30:19;99321.53;;;10.95;66.29
19736;BME280;32064;49.310;8.646;2024-03-02T05:32:44;99319.88;;;10.94;66.75
19736;BME280;32064;49.310;8.646;2024-03-02T05:35:09;99314.19;;;10.89;66.50
19736;BME280;32064;49.310;8.646;2024-03-02T05:37:36;99322.06;;;10.89;67.24
19736;BME280;32064;49.310;8.646;2024-03-02T05:40:01;99317.63;;;10.89;66.21
19736;BME280;32064;49.310;8.646;2024-03-02T05:42:28;99318.06;;;10.94;66.12
19736;BME280;32064;49.310;8.646;2024-03-02T05:44:53;99325.69;;;10.97;66.38
19736;BME280;32064;49.310;8.646;2024-03-02T05:47:19;99324.59;;;10.90;67.86
19736;BME280;32064;49.310;8.646;2024-03-02T05:49:44;99329.97;;;10.89;66.76
19736;BME280;32064;49.310;8.646;2024-03-02T05:52:10;99325.53;;;10.89;67.49
19736;BME280;32064;49.310;8.646;2024-03-02T05:54:36;99315.84;;;10.90;66.96
19736;BME280;32064;49.310;8.646;2024-03-02T05:57:02;99317.91;;;10.86;67.73
19736;BME280;32064;49.310;8.646;2024-03-02T05:59:42;99309.03;;;10.77;67.11
19736;BME280;32064;49.310;8.646;2024-03-02T06:02:07;99304.22;;;10.73;67.92
19736;BME280;32064;49.310;8.646;2024-03-02T06:04:32;99302.78;;;10.69;67.15
19736;BME280;32064;49.310;8.646;2024-03-02T06:06:58;99310.25;;;10.64;66.68
19736;BME280;32064;49.310;8.646;2024-03-02T06:09:23;99309.97;;;10.47;67.23
19736;BME280;32064;49.310;8.646;2024-03-02T06:11:49;99314.50;;;10.45;67.06
19736;BME280;32064;49.310;8.646;2024-03-02T06:14:15;99328.06;;;10.41;67.37
19736;BME280;32064;49.310;8.646;2024-03-02T06:16:40;99327.78;;;10.44;68.56
19736;BME280;32064;49.310;8.646;2024-03-02T06:19:05;99333.13;;;10.32;68.05
19736;BME280;32064;49.310;8.646;2024-03-02T06:21:32;99329.47;;;10.45;67.63
19736;BME280;32064;49.310;8.646;2024-03-02T06:23:57;99325.03;;;10.45;66.89
19736;BME280;32064;49.310;8.646;2024-03-02T06:26:23;99327.94;;;10.52;67.38
19736;BME280;32064;49.310;8.646;2024-03-02T06:28:48;99327.81;;;10.53;68.00
19736;BME280;32064;49.310;8.646;2024-03-02T06:31:14;99325.47;;;10.50;67.57
19736;BME280;32064;49.310;8.646;2024-03-02T06:33:39;99330.13;;;10.47;66.64
19736;BME280;32064;49.310;8.646;2024-03-02T06:36:05;99328.88;;;10.41;67.25
19736;BME280;32064;49.310;8.646;2024-03-02T06:38:33;99333.03;;;10.44;68.13
19736;BME280;32064;49.310;8.646;2024-03-02T06:40:59;99342.72;;;10.33;67.25
19736;BME280;32064;49.310;8.646;2024-03-02T06:43:24;99341.34;;;10.39;67.05
19736;BME280;32064;49.310;8.646;2024-03-02T06:45:50;99334.00;;;10.43;68.61
19736;BME280;32064;49.310;8.646;2024-03-02T06:48:17;99338.03;;;10.47;67.30
19736;BME280;32064;49.310;8.646;2024-03-02T06:50:48;99335.00;;;10.42;67.88
19736;BME280;32064;49.310;8.646;2024-03-02T06:53:14;99336.09;;;10.39;68.82
19736;BME280;32064;49.310;8.646;2024-03-02T06:55:46;99338.72;;;10.39;68.02
19736;BME280;32064;49.310;8.646;2024-03-02T06:58:14;99339.97;;;10.45;67.85
19736;BME280;32064;49.310;8.646;2024-03-02T07:00:43;99329.16;;;10.38;69.05
19736;BME280;32064;49.310;8.646;2024-03-02T07:03:12;99331.66;;;10.40;69.16
19736;BME280;32064;49.310;8.646;2024-03-02T07:05:38;99337.75;;;10.50;69.28
19736;BME280;32064;49.310;8.646;2024-03-02T07:08:04;99332.78;;;10.47;68.39
19736;BME280;32064;49.310;8.646;2024-03-02T07:10:30;99345.00;;;10.57;68.38
19736;BME280;32064;49.310;8.646;2024-03-02T07:12:55;99338.91;;;10.67;68.86
19736;BME280;32064;49.310;8.646;2024-03-02T07:15:21;99341.72;;;10.75;68.29
19736;BME280;32064;49.310;8.646;2024-03-02T07:17:52;99353.75;;;10.77;68.74
19736;BME280;32064;49.310;8.646;2024-03-02T07:20:17;99347.78;;;10.75;67.11
19736;BME280;32064;49.310;8.646;2024-03-02T07:22:43;99348.66;;;10.86;67.61
19736;BME280;32064;49.310;8.646;2024-03-02T07:25:08;99349.75;;;10.83;67.82
19736;BME280;32064;49.310;8.646;2024-03-02T07:27:34;99349.91;;;10.91;68.22
19736;BME280;32064;49.310;8.646;2024-03-02T07:30:04;99350.03;;;10.90;68.26
19736;BME280;32064;49.310;8.646;2024-03-02T07:32:30;99353.66;;;10.89;68.37
19736;BME280;32064;49.310;8.646;2024-03-02T07:34:55;99360.16;;;10.94;66.65
19736;BME280;32064;49.310;8.646;2024-03-02T07:37:21;99360.28;;;10.83;68.45
19736;BME280;32064;49.310;8.646;2024-03-02T07:39:47;99361.69;;;10.87;68.91
19736;BME280;32064;49.310;8.646;2024-03-02T07:42:12;99353.66;;;10.89;66.83
19736;BME280;32064;49.310;8.646;2024-03-02T07:44:38;99364.06;;;11.00;68.73
19736;BME280;32064;49.310;8.646;2024-03-02T07:47:03;99355.47;;;10.98;67.53
19736;BME280;32064;49.310;8.646;2024-03-02T07:49:29;99363.22;;;11.09;68.12
19736;BME280;32064;49.310;8.646;2024-03-02T07:51:54;99368.53;;;11.19;68.91
19736;BME280;32064;49.310;8.646;2024-03-02T07:54:20;99373.78;;;11.29;68.42
19736;BME280;32064;49.310;8.646;2024-03-02T07:56:45;99371.00;;;11.40;68.94
19736;BME280;32064;49.310;8.646;2024-03-02T07:59:12;99372.56;;;11.52;67.58
19736;BME280;32064;49.310;8.646;2024-03-02T08:01:38;99377.25;;;11.58;68.24
19736;BME280;32064;49.310;8.646;2024-03-02T08:04:03;99370.59;;;11.74;67.18
19736;BME280;32064;49.310;8.646;2024-03-02T08:06:29;99366.28;;;11.82;69.09
19736;BME280;32064;49.310;8.646;2024-03-02T08:08:56;99366.97;;;12.04;67.44
19736;BME280;32064;49.310;8.646;2024-03-02T08:11:22;99367.47;;;12.17;67.87
19736;BME280;32064;49.310;8.646;2024-03-02T08:13:47;99372.31;;;12.31;66.22
19736;BME280;32064;49.310;8.646;2024-03-02T08:16:17;99364.16;;;12.52;67.96
19736;BME280;32064;49.310;8.646;2024-03-02T08:18:45;99365.16;;;12.97;67.17
19736;BME280;32064;49.310;8.646;2024-03-02T08:21:12;99374.63;;;13.17;67.27
19736;BME280;32064;49.310;8.646;2024-03-02T08:23:38;99371.56;;;13.40;66.98
19736;BME280;32064;49.310;8.646;2024-03-02T08:26:03;99379.75;;;13.73;67.00
19736;BME280;32064;49.310;8.646;2024-03-02T08:28:29;99370.94;;;14.08;65.94
19736;BME280;32064;49.310;8.646;2024-03-02T08:30:54;99369.41;;;14.31;65.53
19736;BME280;32064;49.310;8.646;2024-03-02T08:33:20;99367.47;;;14.76;65.20
19736;BME280;32064;49.310;8.646;2024-03-02T08:35:45;99363.28;;;15.16;64.70
19736;BME280;32064;49.310;8.646;2024-03-02T08:38:12;99367.97;;;15.63;63.48
19736;BME280;32064;49.310;8.646;2024-03-02T08:40:37;99365.16;;;15.81;63.57
19736;BME280;32064;49.310;8.646;2024-03-02T08:43:03;99366.88;;;16.46;62.95
19736;BME280;32064;49.310;8.646;2024-03-02T08:45:28;99361.81;;;16.98;63.00
19736;BME280;32064;49.310;8.646;2024-03-02T08:47:54;99363.09;;;17.11;62.75
19736;BME280;32064;49.310;8.646;2024-03-02T08:50:19;99362.75;;;17.37;61.19
19736;BME280;32064;49.310;8.646;2024-03-02T08:52:45;99366.19;;;17.45;59.66
19736;BME280;32064;49.310;8.646;2024-03-02T08:55:10;99367.34;;;17.20;60.13
19736;BME280;32064;49.310;8.646;2024-03-02T08:57:36;99357.84;;;17.25;57.49
19736;BME280;32064;49.310;8.646;2024-03-02T09:00:02;99368.66;;;16.93;57.00
19736;BME280;32064;49.310;8.646;2024-03-02T09:02:28;99363.69;;;16.90;56.75
19736;BME280;32064;49.310;8.646;2024-03-02T09:04:53;99352.97;;;16.75;57.24
19736;BME280;32064;49.310;8.646;2024-03-02T09:07:18;99355.06;;;16.56;55.62
19736;BME280;32064;49.310;8.646;2024-03-02T09:09:44;99346.38;;;16.63;56.15
19736;BME280;32064;49.310;8.646;2024-03-02T09:12:09;99348.88;;;16.56;54.43
19736;BME280;32064;49.310;8.646;2024-03-02T09:14:36;99362.59;;;16.28;56.37
19736;BME280;32064;49.310;8.646;2024-03-02T09:17:02;99354.75;;;16.43;55.78
19736;BME280;32064;49.310;8.646;2024-03-02T09:19:29;99357.31;;;16.20;55.59
19736;BME280;32064;49.310;8.646;2024-03-02T09:21:54;99347.84;;;16.26;55.29
19736;BME280;32064;49.310;8.646;2024-03-02T09:24:21;99349.44;;;16.43;54.73
19736;BME280;32064;49.310;8.646;2024-03-02T09:26:46;99344.22;;;16.66;53.99
19736;BME280;32064;49.310;8.646;2024-03-02T09:29:12;99351.00;;;16.77;53.86
19736;BME280;32064;49.310;8.646;2024-03-02T09:31:41;99343.78;;;17.17;53.28
19736;BME280;32064;49.310;8.646;2024-03-02T09:34:07;99352.34;;;17.73;53.48
19736;BME280;32064;49.310;8.646;2024-03-02T09:36:32;99349.13;;;18.45;54.31
19736;BME280;32064;49.310;8.646;2024-03-02T09:38:58;99363.56;;;19.17;53.62
19736;BME280;32064;49.310;8.646;2024-03-02T09:41:23;99361.56;;;19.90;53.28
19736;BME280;32064;49.310;8.646;2024-03-02T09:43:49;99364.06;;;20.54;52.43
19736;BME280;32064;49.310;8.646;2024-03-02T09:46:15;99358.50;;;21.11;50.54
19736;BME280;32064;49.310;8.646;2024-03-02T09:48:40;99358.34;;;21.25;50.56
19736;BME280;32064;49.310;8.646;2024-03-02T09:51:05;99351.22;;;21.46;49.44
19736;BME280;32064;49.310;8.646;2024-03-02T09:53:32;99353.47;;;21.89;49.20
19736;BME280;32064;49.310;8.646;2024-03-02T09:56:01;99343.09;;;22.46;48.69
19736;BME280;32064;49.310;8.646;2024-03-02T09:58:26;99343.22;;;22.71;47.83
19736;BME280;32064;49.310;8.646;2024-03-02T10:00:52;99342.03;;;23.05;47.21
19736;BME280;32064;49.310;8.646;2024-03-02T10:03:18;99342.63;;;23.14;46.12
19736;BME280;32064;49.310;8.646;2024-03-02T10:05:44;99335.75;;;23.49;45.60
19736;BME280;32064;49.310;8.646;2024-03-02T10:08:09;99339.97;;;23.70;44.98
19736;BME280;32064;49.310;8.646;2024-03-02T10:10:36;99336.88;;;23.67;45.06
19736;BME280;32064;49.310;8.646;2024-03-02T10:13:09;99326.44;;;24.02;44.00
19736;BME280;32064;49.310;8.646;2024-03-02T10:15:35;99333.88;;;23.82;43.74
19736;BME280;32064;49.310;8.646;2024-03-02T10:18:03;99328.03;;;24.10;43.70
19736;BME280;32064;49.310;8.646;2024-03-02T10:20:29;99325.41;;;24.40;43.11
19736;BME280;32064;49.310;8.646;2024-03-02T10:22:55;99329.19;;;24.57;42.42
19736;BME280;32064;49.310;8.646;2024-03-02T10:25:31;99325.28;;;24.72;42.05
19736;BME280;32064;49.310;8.646;2024-03-02T10:28:00;99321.59;;;24.84;40.06
19736;BME280;32064;49.310;8.646;2024-03-02T10:30:29;99319.06;;;25.01;41.06
19736;BME280;32064;49.310;8.646;2024-03-02T10:32:55;99335.88;;;25.45;40.19
19736;BME280;32064;49.310;8.646;2024-03-02T10:35:22;99327.34;;;25.60;39.27
19736;BME280;32064;49.310;8.646;2024-03-02T10:37:49;99335.00;;;26.10;39.06
19736;BME280;32064;49.310;8.646;2024-03-02T10:40:15;99325.63;;;26.01;38.83
19736;BME280;32064;49.310;8.646;2024-03-02T10:42:41;99321.59;;;26.51;39.16
19736;BME280;32064;49.310;8.646;2024-03-02T10:45:10;99329.28;;;26.71;38.89
19736;BME280;32064;49.310;8.646;2024-03-02T10:47:37;99322.31;;;26.75;38.48
19736;BME280;32064;49.310;8.646;2024-03-02T10:50:04;99320.09;;;27.00;37.07
19736;BME280;32064;49.310;8.646;2024-03-02T10:52:35;99324.53;;;26.90;37.35
19736;BME280;32064;49.310;8.646;2024-03-02T10:55:00;99313.16;;;27.16;36.48
19736;BME280;32064;49.310;8.646;2024-03-02T10:57:26;99309.72;;;27.09;36.23
19736;BME280;32064;49.310;8.646;2024-03-02T11:00:02;99307.34;;;26.96;35.30
19736;BME280;32064;49.310;8.646;2024-03-02T11:02:30;99304.81;;;27.18;35.79
19736;BME280;32064;49.310;8.646;2024-03-02T11:04:56;99299.00;;;27.43;35.79
19736;BME280;32064;49.310;8.646;2024-03-02T11:07:26;99301.63;;;27.71;35.61
19736;BME280;32064;49.310;8.646;2024-03-02T11:09:59;99299.66;;;28.01;35.25
19736;BME280;32064;49.310;8.646;2024-03-02T11:12:29;99297.31;;;28.09;33.62
19736;BME280;32064;49.310;8.646;2024-03-02T11:14:58;99297.31;;;28.09;35.41
19736;BME280;32064;49.310;8.646;2024-03-02T11:17:24;99292.22;;;28.52;34.47
19736;BME280;32064;49.310;8.646;2024-03-02T11:19:51;99296.97;;;28.67;34.73
19736;BME280;32064;49.310;8.646;2024-03-02T11:22:17;99282.06;;;28.42;34.50
19736;BME280;32064;49.310;8.646;2024-03-02T11:24:51;99279.53;;;27.58;33.76
19736;BME280;32064;49.310;8.646;2024-03-02T11:33:09;99266.78;;;25.98;36.48
19736;BME280;32064;49.310;8.646;2024-03-02T11:35:36;99260.66;;;25.44;36.09
19736;BME280;32064;49.310;8.646;2024-03-02T11:38:02;99253.59;;;25.19;36.12
19736;BME280;32064;49.310;8.646;2024-03-02T11:40:28;99250.81;;;25.26;36.05
19736;BME280;32064;49.310;8.646;2024-03-02T11:42:54;99252.84;;;24.70;36.22
19736;BME280;32064;49.310;8.646;2024-03-02T11:45:27;99234.63;;;23.87;36.45
19736;BME280;32064;49.310;8.646;2024-03-02T11:47:59;99234.16;;;23.46;37.47
19736;BME280;32064;49.310;8.646;2024-03-02T11:50:36;99232.84;;;23.30;36.84
19736;BME280;32064;49.310;8.646;2024-03-02T11:53:05;99230.91;;;23.13;37.56
19736;BME280;32064;49.310;8.646;2024-03-02T11:55:35;99224.44;;;23.27;37.88
19736;BME280;32064;49.310;8.646;2024-03-02T11:58:04;99227.22;;;23.14;37.65
19736;BME280;32064;49.310;8.646;2024-03-02T12:00:30;99219.81;;;23.09;37.27
19736;BME280;32064;49.310;8.646;2024-03-02T12:03:03;99221.03;;;23.13;37.09
19736;BME280;32064;49.310;8.646;2024-03-02T12:05:29;99220.75;;;22.96;38.87
19736;BME280;32064;49.310;8.646;2024-03-02T12:07:59;99223.44;;;22.96;37.60
19736;BME280;32064;49.310;8.646;2024-03-02T12:10:26;99205.69;;;22.57;38.64
19736;BME280;32064;49.310;8.646;2024-03-02T12:13:05;99205.72;;;22.50;39.83
19736;BME280;32064;49.310;8.646;2024-03-02T12:15:37;99194.22;;;22.75;39.24
19736;BME280;32064;49.310;8.646;2024-03-02T12:18:03;99190.78;;;22.68;39.30
19736;BME280;32064;49.310;8.646;2024-03-02T12:20:30;99200.97;;;22.84;39.07
19736;BME280;32064;49.310;8.646;2024-03-02T12:23:01;99192.53;;;22.80;39.32
19736;BME280;32064;49.310;8.646;2024-03-02T12:25:27;99195.31;;;22.67;38.60
19736;BME280;32064;49.310;8.646;2024-03-02T12:27:55;99191.47;;;22.88;38.90
19736;BME280;32064;49.310;8.646;2024-03-02T12:30:21;99189.94;;;22.67;38.23
19736;BME280;32064;49.310;8.646;2024-03-02T12:32:47;99188.59;;;22.83;38.26
19736;BME280;32064;49.310;8.646;2024-03-02T12:35:13;99179.63;;;23.02;39.13
19736;BME280;32064;49.310;8.646;2024-03-02T12:37:45;99188.81;;;22.81;39.21
19736;BME280;32064;49.310;8.646;2024-03-02T12:40:12;99180.19;;;22.79;38.14
19736;BME280;32064;49.310;8.646;2024-03-02T12:42:41;99174.16;;;22.84;39.24
19736;BME280;32064;49.310;8.646;2024-03-02T12:45:10;99178.38;;;22.73;38.67
19736;BME280;32064;49.310;8.646;2024-03-02T12:47:36;99172.59;;;22.70;38.99
19736;BME280;32064;49.310;8.646;2024-03-02T12:50:03;99162.09;;;22.68;39.07
19736;BME280;32064;49.310;8.646;2024-03-02T12:52:29;99161.81;;;22.45;39.61
19736;BME280;32064;49.310;8.646;2024-03-02T12:54:54;99162.59;;;22.20;39.73
19736;BME280;32064;49.310;8.646;2024-03-02T12:57:27;99157.38;;;22.32;38.92
19736;BME280;32064;49.310;8.646;2024-03-02T12:59:58;99161.63;;;22.46;39.80
19736;BME280;32064;49.310;8.646;2024-03-02T13:02:27;99159.06;;;22.26;39.95
19736;BME280;32064;49.310;8.646;2024-03-02T13:04:53;99155.56;;;22.19;39.56
19736;BME280;32064;49.310;8.646;2024-03-02T13:07:20;99152.66;;;22.27;38.94